Impacts TAF Board INFO
FOR SITUATIONAL AWARENESS. NOT TO BE USED FOR FLIGHT PLANNING PURPOSES.
IDs:

KMCO - Orlando Intl, FL, US

Issued at 1459 UTC 18 Jan 2018
Updated at 1530 UTC 18 Jan 2018
Potential Impact None Slight Moderate High
Time1453Z 18/16Z 18/17Z 18/18Z 18/19Z 18/20Z 18/21Z 18/22Z 18/23Z 19/00Z 19/01Z 19/02Z 19/03Z 19/04Z>>
Type OBS PRVL PRVL PRVL PRVL PRVL PRVL PRVL PRVL PRVL PRVL PRVL PRVL PRVL
VIS 10 >6 >6 >6 >6 >6 >6 >6 >6 >6 >6 >6 >6 >6
CIG -- -- -- -- -- -- -- -- -- -- -- -- -- --
Cover FEW SKC SKC SKC SKC SKC SKC SKC SKC SCT SCT SCT SCT SCT
FltCat VFR VFR VFR VFR VFR VFR VFR VFR VFR VFR VFR VFR VFR VFR
WX -- -- -- -- -- -- -- -- -- -- -- -- -- --
WDir 360 360 360 360 360 360 360 360 360 360 360 360 360 360
WSpd 8 9 9 9 9 9 9 9 9 4 4 4 4 4
WGst -- -- -- -- -- -- -- -- -- -- -- -- -- --

Raw TAF
KMCO 181459Z 1815/1918 36009KT P6SM SKC
  FM190000 36004KT P6SM SCT250


Raw METAR
KMCO 181453Z 36008KT 10SM FEW300 02/M07 A3042 RMK AO2 SLP298 T00221067 51015
KMCO 181353Z 33011KT 10SM FEW300 00/M07 A3041 RMK AO2 SLP296 T00001072
KMCO 181253Z 32009KT 10SM FEW300 M02/M09 A3039 RMK AO2 SLP290 T10221089

METAR Board
Radar Display
Forecast Discussion

FOR SITUATIONAL AWARENESS. NOT TO BE USED FOR FLIGHT PLANNING PURPOSES.